Time;durP1;ratioP1;P1;durP2;ratioP2;P2;SDS_P1;SDS_P2;PMS_P1;PMS_P2;Temp;Humidity;BMP_temperature;BMP_pressure;BME280_temperature;BME280_humidity;BME280_pressure;Samples;Min_cycle;Max_cycle;Signal;HPM_P1;HPM_P2
2023/06/16 00:01:35;;;;;;;;;;;;;;;20.42;50.19;99542.69;5319856;27;34787;-84
2023/06/16 00:04:04;;;;;;;;;;;;;;;20.44;50.18;99546.06;5320058;27;34661;-85
2023/06/16 00:06:31;;;;;;;;;;;;;;;20.42;50.39;99543.53;5302146;27;34310;-85
2023/06/16 00:09:00;;;;;;;;;;;;;;;20.38;50.71;99543.94;5283372;27;33354;-84
2023/06/16 00:11:28;;;;;;;;;;;;;;;20.40;50.95;99547.31;5320083;27;34334;-84
2023/06/16 00:13:56;;;;;;;;;;;;;;;20.46;50.57;99536.03;5301851;27;33711;-84
2023/06/16 00:16:23;;;;;;;;;;;;;;;20.37;50.89;99539.56;5283094;27;32040;-84
2023/06/16 00:18:52;;;;;;;;;;;;;;;20.38;50.76;99538.56;5320079;27;33725;-84
2023/06/16 00:21:27;;;;;;;;;;;;;;;20.44;50.64;99544.22;5283024;27;33510;-84
2023/06/16 00:23:54;;;;;;;;;;;;;;;20.43;50.79;99537.19;5319842;27;33975;-84
2023/06/16 00:26:23;;;;;;;;;;;;;;;20.59;50.48;99531.31;5301856;27;34220;-84
2023/06/16 00:28:50;;;;;;;;;;;;;;;20.39;50.83;99529.53;5301689;27;34079;-83
2023/06/16 00:31:18;;;;;;;;;;;;;;;20.41;51.01;99530.22;5319829;27;35051;-84
2023/06/16 00:33:45;;;;;;;;;;;;;;;20.44;51.12;99528.13;5320307;27;33720;-84
2023/06/16 00:36:15;;;;;;;;;;;;;;;20.50;51.19;99524.09;5262103;27;32774;-84
2023/06/16 00:38:43;;;;;;;;;;;;;;;20.53;51.11;99525.66;5283398;27;33103;-84
2023/06/16 00:41:10;;;;;;;;;;;;;;;20.37;51.64;99520.78;5301156;27;34512;-83
2023/06/16 00:43:37;;;;;;;;;;;;;;;20.40;51.33;99520.50;5319776;27;34547;-83
2023/06/16 00:46:06;;;;;;;;;;;;;;;20.45;51.34;99520.94;5300489;27;32014;-83
2023/06/16 00:48:33;;;;;;;;;;;;;;;20.34;52.23;99521.91;5301675;27;32779;-84
2023/06/16 00:51:01;;;;;;;;;;;;;;;20.43;51.98;99521.09;5319888;27;34301;-84
2023/06/16 00:53:31;;;;;;;;;;;;;;;20.40;52.03;99524.03;5301552;27;33282;-84
2023/06/16 00:55:59;;;;;;;;;;;;;;;20.54;51.79;99522.84;5302302;27;33388;-84
2023/06/16 00:58:28;;;;;;;;;;;;;;;20.31;52.84;99511.44;5300941;27;34553;-84
2023/06/16 01:00:56;;;;;;;;;;;;;;;20.34;52.90;99515.69;5301132;27;35158;-84
2023/06/16 01:03:23;;;;;;;;;;;;;;;20.41;52.66;99515.03;5301642;27;33041;-84
2023/06/16 01:05:56;;;;;;;;;;;;;;;20.38;52.99;99509.91;5301116;27;33484;-84
2023/06/16 01:08:38;;;;;;;;;;;;;;;20.35;53.03;99509.34;5302474;27;33930;-84
2023/06/16 01:11:07;;;;;;;;;;;;;;;20.29;53.70;99509.88;5319680;27;33867;-84
2023/06/16 01:13:40;;;;;;;;;;;;;;;20.29;53.33;99513.41;5301384;27;34134;-84
2023/06/16 01:16:07;;;;;;;;;;;;;;;20.19;53.59;99508.03;5300993;27;33667;-83
2023/06/16 01:18:36;;;;;;;;;;;;;;;20.31;53.34;99507.91;5301526;27;32770;-84
2023/06/16 01:21:10;;;;;;;;;;;;;;;20.29;53.52;99502.69;5283256;27;35052;-84
2023/06/16 01:23:58;;;;;;;;;;;;;;;20.20;53.96;99504.34;5302685;27;32869;-84
2023/06/16 01:26:27;;;;;;;;;;;;;;;20.41;53.20;99500.75;5322123;27;32751;-84
2023/06/16 01:28:55;;;;;;;;;;;;;;;20.26;53.69;99502.09;5302644;27;32894;-84
2023/06/16 01:31:22;;;;;;;;;;;;;;;20.32;53.47;99498.87;5302762;27;35065;-84
2023/06/16 01:33:52;;;;;;;;;;;;;;;20.25;54.65;99495.06;5320879;27;33865;-84
2023/06/16 01:36:22;;;;;;;;;;;;;;;20.25;54.67;99495.91;5285312;27;32241;-84
2023/06/16 01:38:51;;;;;;;;;;;;;;;20.22;54.36;99490.81;5320921;27;34255;-84
2023/06/16 01:41:19;;;;;;;;;;;;;;;20.27;54.51;99487.72;5283666;27;32903;-84
2023/06/16 01:43:47;;;;;;;;;;;;;;;20.33;54.46;99492.56;5320461;27;34123;-84
2023/06/16 01:46:14;;;;;;;;;;;;;;;20.41;54.11;99490.87;5302470;27;32364;-84
2023/06/16 01:48:43;;;;;;;;;;;;;;;20.27;54.38;99485.03;5302140;27;34068;-84
2023/06/16 01:51:10;;;;;;;;;;;;;;;20.20;54.95;99492.78;5301978;27;33994;-84
2023/06/16 01:53:39;;;;;;;;;;;;;;;20.28;54.45;99494.78;5284766;27;33435;-84
2023/06/16 01:56:06;;;;;;;;;;;;;;;20.30;54.28;99490.97;5320423;27;33022;-84
2023/06/16 01:58:34;;;;;;;;;;;;;;;20.35;54.21;99493.25;5284307;27;33841;-85
2023/06/16 02:01:07;;;;;;;;;;;;;;;20.36;54.43;99489.56;5320609;27;33499;-85
2023/06/16 02:03:47;;;;;;;;;;;;;;;20.34;54.35;99494.25;5320588;27;34879;-84
2023/06/16 02:06:16;;;;;;;;;;;;;;;20.37;54.16;99493.97;5302508;27;34164;-85
2023/06/16 02:08:45;;;;;;;;;;;;;;;20.34;54.05;99489.72;5302695;27;34152;-85
2023/06/16 02:11:14;;;;;;;;;;;;;;;20.39;54.06;99492.00;5284062;27;33409;-85
2023/06/16 02:13:42;;;;;;;;;;;;;;;20.48;53.67;99496.56;5266507;27;33879;-84
2023/06/16 02:16:10;;;;;;;;;;;;;;;20.44;54.02;99489.75;5302645;27;33496;-84
2023/06/16 02:18:39;;;;;;;;;;;;;;;20.43;53.83;99483.53;5302715;27;33512;-84
2023/06/16 02:21:06;;;;;;;;;;;;;;;20.41;53.98;99484.66;5302805;27;33588;-84
2023/06/16 02:23:34;;;;;;;;;;;;;;;20.40;54.05;99483.81;5302043;27;33001;-85
2023/06/16 02:26:01;;;;;;;;;;;;;;;20.42;53.90;99494.41;5302577;27;32607;-85
2023/06/16 02:28:29;;;;;;;;;;;;;;;20.70;53.35;99490.97;5302144;27;33839;-85
2023/06/16 02:30:56;;;;;;;;;;;;;;;20.53;53.67;99494.31;5283544;27;33194;-85
2023/06/16 02:33:24;;;;;;;;;;;;;;;20.63;53.68;99487.12;5283766;27;34128;-85
2023/06/16 02:35:52;;;;;;;;;;;;;;;20.50;54.05;99496.41;5321840;27;33783;-85
2023/06/16 02:38:20;;;;;;;;;;;;;;;20.35;54.61;99490.56;5302751;27;34034;-85
2023/06/16 02:40:47;;;;;;;;;;;;;;;20.18;54.87;99484.88;5266340;27;33938;-85
2023/06/16 02:43:15;;;;;;;;;;;;;;;20.20;54.80;99485.59;5266102;27;33098;-85
2023/06/16 02:45:42;;;;;;;;;;;;;;;20.50;54.21;99489.22;5302315;27;33146;-85
2023/06/16 02:48:10;;;;;;;;;;;;;;;20.12;55.12;99482.72;5284117;27;34989;-85
2023/06/16 02:50:38;;;;;;;;;;;;;;;20.09;55.18;99487.53;5302355;27;34072;-84
2023/06/16 02:53:07;;;;;;;;;;;;;;;20.10;55.54;99486.53;5302421;27;34244;-84
2023/06/16 02:55:35;;;;;;;;;;;;;;;20.26;55.02;99486.88;5284437;27;33332;-84
2023/06/16 02:58:02;;;;;;;;;;;;;;;20.24;54.97;99472.75;5302551;27;34438;-84
2023/06/16 03:00:30;;;;;;;;;;;;;;;20.27;55.04;99474.31;5302664;27;34496;-84
2023/06/16 03:02:59;;;;;;;;;;;;;;;20.31;55.06;99478.41;5284892;27;33961;-84
2023/06/16 03:05:28;;;;;;;;;;;;;;;20.26;54.98;99486.03;5284539;27;33456;-84
2023/06/16 03:07:56;;;;;;;;;;;;;;;20.43;54.21;99494.28;5302250;27;33918;-84
2023/06/16 03:10:24;;;;;;;;;;;;;;;20.34;54.36;99488.88;5283938;27;33121;-84
2023/06/16 03:12:52;;;;;;;;;;;;;;;20.31;54.44;99489.13;5284184;27;33453;-84
2023/06/16 03:15:23;;;;;;;;;;;;;;;20.07;55.82;99478.75;5283956;27;33138;-84
2023/06/16 03:17:52;;;;;;;;;;;;;;;19.92;55.98;99483.63;5302950;27;33951;-85
2023/06/16 03:20:21;;;;;;;;;;;;;;;20.28;54.90;99484.91;5283844;27;33534;-86
2023/06/16 03:22:50;;;;;;;;;;;;;;;20.15;55.21;99485.16;5266430;27;33756;-84
2023/06/16 03:25:17;;;;;;;;;;;;;;;20.21;54.93;99484.59;5283936;27;32510;-85
2023/06/16 03:27:46;;;;;;;;;;;;;;;20.02;55.19;99487.19;5284160;27;33917;-85
2023/06/16 03:30:13;;;;;;;;;;;;;;;20.15;54.97;99482.47;5283878;27;34004;-85
2023/06/16 03:32:44;;;;;;;;;;;;;;;20.17;55.23;99490.37;5302608;27;34682;-85
2023/06/16 03:35:12;;;;;;;;;;;;;;;19.99;55.78;99484.81;5284890;27;33775;-85
2023/06/16 03:37:40;;;;;;;;;;;;;;;20.19;55.02;99481.22;5266356;27;32147;-85
2023/06/16 03:40:08;;;;;;;;;;;;;;;20.08;55.54;99486.69;5301788;27;34781;-85
2023/06/16 03:42:36;;;;;;;;;;;;;;;20.12;55.54;99484.56;5284040;27;34069;-83
2023/06/16 03:45:04;;;;;;;;;;;;;;;20.15;55.67;99485.16;5284299;27;33076;-84
2023/06/16 03:47:31;;;;;;;;;;;;;;;20.12;55.57;99489.91;5283135;27;34173;-84
2023/06/16 03:50:00;;;;;;;;;;;;;;;20.02;56.01;99489.87;5284352;27;33931;-84
2023/06/16 03:52:29;;;;;;;;;;;;;;;19.99;56.08;99489.28;5266760;27;33421;-83
2023/06/16 03:54:57;;;;;;;;;;;;;;;20.01;55.72;99493.56;5283777;27;33131;-84
2023/06/16 03:57:24;;;;;;;;;;;;;;;20.20;55.22;99492.78;5283486;27;33007;-84
2023/06/16 03:59:52;;;;;;;;;;;;;;;20.32;55.03;99480.09;5265619;27;33423;-83
2023/06/16 04:02:20;;;;;;;;;;;;;;;20.43;54.58;99483.53;5321397;27;33681;-83
2023/06/16 04:04:51;;;;;;;;;;;;;;;20.43;54.65;99485.38;5284788;27;33229;-84
2023/06/16 04:07:19;;;;;;;;;;;;;;;20.53;54.61;99482.75;5284583;27;34151;-83
2023/06/16 04:09:47;;;;;;;;;;;;;;;20.60;54.30;99479.34;5283914;27;35029;-84
2023/06/16 04:12:15;;;;;;;;;;;;;;;20.59;54.50;99479.50;5302118;27;35223;-83
2023/06/16 04:14:42;;;;;;;;;;;;;;;20.51;54.78;99485.56;5301683;27;33034;-84
2023/06/16 04:17:10;;;;;;;;;;;;;;;20.62;54.34;99481.91;5284569;27;34988;-84
2023/06/16 04:19:38;;;;;;;;;;;;;;;20.64;54.49;99483.47;5282266;27;34032;-84
2023/06/16 04:22:06;;;;;;;;;;;;;;;20.73;54.14;99494.34;5284267;27;34390;-83
2023/06/16 04:24:35;;;;;;;;;;;;;;;20.83;54.08;99490.69;5265649;27;32108;-84
2023/06/16 04:27:03;;;;;;;;;;;;;;;20.82;53.80;99483.63;5284109;27;33377;-84
2023/06/16 04:29:31;;;;;;;;;;;;;;;21.13;53.30;99492.41;5301545;27;33888;-83
2023/06/16 04:32:00;;;;;;;;;;;;;;;20.79;54.21;99491.09;5265775;27;32696;-83
2023/06/16 04:34:31;;;;;;;;;;;;;;;21.00;53.43;99485.63;5321748;27;34499;-83
2023/06/16 04:37:00;;;;;;;;;;;;;;;20.97;53.44;99492.09;5302585;27;34303;-83
2023/06/16 04:39:27;;;;;;;;;;;;;;;21.01;53.76;99487.31;5321389;27;33859;-83
2023/06/16 04:41:56;;;;;;;;;;;;;;;21.06;53.71;99488.56;5265648;27;33162;-82
2023/06/16 04:44:24;;;;;;;;;;;;;;;21.05;53.75;99481.53;5265869;27;32693;-83
2023/06/16 04:46:53;;;;;;;;;;;;;;;21.45;52.46;99475.16;5302000;27;33727;-83
2023/06/16 04:49:21;;;;;;;;;;;;;;;21.39;52.61;99479.25;5283583;27;34235;-84
2023/06/16 04:51:48;;;;;;;;;;;;;;;21.48;52.32;99474.87;5265442;27;33391;-84
2023/06/16 04:54:18;;;;;;;;;;;;;;;21.30;52.62;99476.56;5284080;27;33766;-83
2023/06/16 04:56:46;;;;;;;;;;;;;;;21.48;52.28;99478.41;5284933;27;34307;-85
2023/06/16 04:59:13;;;;;;;;;;;;;;;21.54;51.86;99479.66;5301684;27;33848;-84
2023/06/16 05:01:40;;;;;;;;;;;;;;;21.70;51.73;99479.06;5284164;27;34852;-84
2023/06/16 05:04:08;;;;;;;;;;;;;;;21.76;51.85;99475.78;5302308;27;33197;-83
2023/06/16 05:06:39;;;;;;;;;;;;;;;21.85;51.77;99474.06;5284480;27;34070;-85
2023/06/16 05:09:06;;;;;;;;;;;;;;;21.94;51.54;99476.72;5284363;27;33771;-85
2023/06/16 05:11:34;;;;;;;;;;;;;;;22.16;52.13;99478.19;5265915;27;33023;-85
2023/06/16 05:14:01;;;;;;;;;;;;;;;21.95;52.33;99482.94;5284018;27;33237;-85
2023/06/16 05:16:29;;;;;;;;;;;;;;;21.90;52.09;99483.37;5302044;27;35062;-85
2023/06/16 05:18:57;;;;;;;;;;;;;;;21.86;51.79;99478.44;5284344;27;34626;-85
2023/06/16 05:21:26;;;;;;;;;;;;;;;21.76;51.80;99478.47;5266089;27;33835;-83
2023/06/16 05:23:54;;;;;;;;;;;;;;;22.01;51.36;99487.72;5283649;27;33121;-83
2023/06/16 05:26:22;;;;;;;;;;;;;;;22.02;51.68;99477.81;5284086;27;33339;-84
2023/06/16 05:28:50;;;;;;;;;;;;;;;22.16;50.95;99486.25;5301839;27;33898;-84
2023/06/16 05:31:17;;;;;;;;;;;;;;;22.30;50.86;99484.91;5283134;27;33521;-84
2023/06/16 05:33:45;;;;;;;;;;;;;;;22.44;50.36;99483.56;5302112;27;33988;-83
2023/06/16 05:36:13;;;;;;;;;;;;;;;22.37;50.81;99482.50;5283277;27;34707;-84
2023/06/16 05:38:40;;;;;;;;;;;;;;;22.02;51.71;99489.41;5284022;27;34625;-85
2023/06/16 05:41:08;;;;;;;;;;;;;;;22.33;50.39;99487.31;5301882;27;35382;-84
2023/06/16 05:43:37;;;;;;;;;;;;;;;22.39;50.33;99488.56;5302384;27;33538;-84
2023/06/16 05:46:05;;;;;;;;;;;;;;;22.23;51.08;99487.38;5283574;27;33726;-83
2023/06/16 05:48:33;;;;;;;;;;;;;;;22.26;50.83;99486.22;5283448;27;34946;-84
2023/06/16 05:51:00;;;;;;;;;;;;;;;22.29;51.34;99490.47;5302194;27;34280;-84
2023/06/16 05:53:28;;;;;;;;;;;;;;;22.38;50.70;99489.56;5283905;27;32371;-84
2023/06/16 05:55:56;;;;;;;;;;;;;;;22.42;50.62;99486.44;5284420;27;33830;-84
2023/06/16 05:58:26;;;;;;;;;;;;;;;22.67;50.31;99490.22;5284329;27;34101;-84
2023/06/16 06:00:54;;;;;;;;;;;;;;;22.72;50.11;99492.47;5283853;27;33269;-84
2023/06/16 06:03:22;;;;;;;;;;;;;;;22.74;50.28;99493.16;5284113;27;33013;-84
2023/06/16 06:05:50;;;;;;;;;;;;;;;22.86;49.46;99494.62;5300971;27;33856;-84
2023/06/16 06:08:22;;;;;;;;;;;;;;;22.70;49.13;99494.47;5283043;27;33324;-84
2023/06/16 06:10:51;;;;;;;;;;;;;;;22.42;50.48;99490.97;5302681;27;33961;-84
2023/06/16 06:13:19;;;;;;;;;;;;;;;22.11;50.79;99501.12;5302014;27;34089;-84
2023/06/16 06:15:47;;;;;;;;;;;;;;;22.09;51.42;99495.91;5284027;27;34252;-84
2023/06/16 06:18:16;;;;;;;;;;;;;;;22.19;50.96;99491.34;5301879;27;34230;-84
2023/06/16 06:20:45;;;;;;;;;;;;;;;22.57;50.55;99494.81;5265007;27;33236;-84
2023/06/16 06:23:12;;;;;;;;;;;;;;;22.71;50.15;99496.16;5301581;27;33142;-84
2023/06/16 06:25:42;;;;;;;;;;;;;;;22.50;50.58;99501.78;5301193;27;34569;-84
2023/06/16 06:28:10;;;;;;;;;;;;;;;22.35;50.34;99506.84;5283116;27;33438;-84
2023/06/16 06:30:37;;;;;;;;;;;;;;;22.39;50.77;99502.00;5283903;27;33575;-84
2023/06/16 06:33:05;;;;;;;;;;;;;;;22.44;50.24;99499.72;5283985;27;32122;-84
2023/06/16 06:35:34;;;;;;;;;;;;;;;22.42;49.84;99502.56;5284150;27;34246;-84
2023/06/16 06:38:03;;;;;;;;;;;;;;;22.42;50.39;99507.94;5283609;27;34169;-84
2023/06/16 06:40:32;;;;;;;;;;;;;;;22.59;49.33;99508.97;5302504;27;35027;-84
2023/06/16 06:43:00;;;;;;;;;;;;;;;22.85;49.67;99508.25;5284093;27;34556;-84
2023/06/16 06:45:28;;;;;;;;;;;;;;;22.98;48.93;99514.16;5301936;27;33737;-84
2023/06/16 06:47:56;;;;;;;;;;;;;;;22.83;49.47;99521.00;5283410;27;32944;-84
2023/06/16 06:50:24;;;;;;;;;;;;;;;22.63;49.90;99523.81;5300234;27;34537;-84
2023/06/16 06:52:51;;;;;;;;;;;;;;;22.80;49.95;99519.47;5281534;27;33610;-84
2023/06/16 06:55:20;;;;;;;;;;;;;;;22.81;50.33;99520.31;5299251;27;34911;-84
2023/06/16 06:57:49;;;;;;;;;;;;;;;22.56;50.72;99521.91;5264380;27;33520;-84
2023/06/16 07:00:17;;;;;;;;;;;;;;;22.78;49.77;99523.31;5283468;27;34178;-84
2023/06/16 07:02:45;;;;;;;;;;;;;;;22.63;50.02;99523.81;5301840;27;34145;-83
2023/06/16 07:05:16;;;;;;;;;;;;;;;22.60;50.54;99526.84;5300806;27;33530;-83
2023/06/16 07:08:13;;;;;;;;;;;;;;;22.79;50.17;99520.47;5287065;27;33969;-83
2023/06/16 07:10:40;;;;;;;;;;;;;;;22.72;49.72;99517.53;5283353;27;33543;-84
2023/06/16 07:13:08;;;;;;;;;;;;;;;22.40;50.68;99515.31;5283475;27;32913;-83
2023/06/16 07:15:36;;;;;;;;;;;;;;;22.45;50.53;99521.06;5301023;27;34243;-83
2023/06/16 07:18:05;;;;;;;;;;;;;;;22.42;50.75;99524.09;5283616;27;34274;-83
2023/06/16 07:20:33;;;;;;;;;;;;;;;22.90;50.61;99522.13;5282539;27;32775;-84
2023/06/16 07:23:00;;;;;;;;;;;;;;;22.82;50.46;99527.38;5301011;27;32779;-85
2023/06/16 07:25:45;;;;;;;;;;;;;;;22.91;49.76;99521.13;5270869;27;34639;-85
2023/06/16 07:28:13;;;;;;;;;;;;;;;23.23;48.57;99521.44;5301696;27;32475;-84
2023/06/16 07:30:40;;;;;;;;;;;;;;;23.36;49.24;99529.13;5282635;27;33096;-84
2023/06/16 07:33:08;;;;;;;;;;;;;;;23.33;49.90;99525.91;5282746;27;33847;-84
2023/06/16 07:35:36;;;;;;;;;;;;;;;23.05;50.18;99520.59;5283917;27;34164;-85
2023/06/16 07:38:04;;;;;;;;;;;;;;;23.10;50.42;99531.75;5282896;27;33450;-85
2023/06/16 07:40:31;;;;;;;;;;;;;;;23.14;49.09;99524.22;5300968;27;33640;-84
2023/06/16 07:42:59;;;;;;;;;;;;;;;23.54;48.77;99523.69;5283612;27;34035;-85
2023/06/16 07:45:26;;;;;;;;;;;;;;;23.25;49.10;99524.81;5283095;27;34219;-84
2023/06/16 07:47:54;;;;;;;;;;;;;;;23.68;48.15;99527.72;5282989;27;33921;-84
2023/06/16 07:50:22;;;;;;;;;;;;;;;23.58;48.31;99525.09;5301346;27;33555;-85
2023/06/16 07:52:49;;;;;;;;;;;;;;;23.74;48.00;99527.94;5282737;27;32576;-85
2023/06/16 07:55:17;;;;;;;;;;;;;;;23.55;48.52;99525.41;5299968;27;33927;-84
2023/06/16 07:57:44;;;;;;;;;;;;;;;23.98;48.16;99521.03;5265142;27;33568;-84
2023/06/16 08:00:14;;;;;;;;;;;;;;;24.11;47.67;99524.09;5282568;27;34068;-84
2023/06/16 08:02:44;;;;;;;;;;;;;;;24.38;47.30;99519.56;5284089;27;34099;-84
2023/06/16 08:05:14;;;;;;;;;;;;;;;24.72;47.10;99530.28;5300640;27;34922;-85
2023/06/16 08:07:42;;;;;;;;;;;;;;;24.53;48.50;99520.63;5301430;27;34075;-84
2023/06/16 08:10:10;;;;;;;;;;;;;;;25.19;46.62;99518.94;5265213;27;33803;-84
2023/06/16 08:12:43;;;;;;;;;;;;;;;25.20;45.16;99521.47;5265842;27;31944;-84
2023/06/16 08:15:11;;;;;;;;;;;;;;;25.36;45.58;99519.81;5283783;27;33098;-84
2023/06/16 08:17:41;;;;;;;;;;;;;;;25.40;45.21;99513.03;5283096;27;32815;-84
2023/06/16 08:20:09;;;;;;;;;;;;;;;25.87;43.73;99509.62;5283429;27;34187;-84
2023/06/16 08:22:37;;;;;;;;;;;;;;;25.92;43.63;99509.97;5300607;27;33635;-84
2023/06/16 08:25:05;;;;;;;;;;;;;;;25.76;42.99;99511.69;5282232;27;34061;-84
2023/06/16 08:27:32;;;;;;;;;;;;;;;25.53;42.75;99505.25;5283010;27;34352;-85
2023/06/16 08:30:00;;;;;;;;;;;;;;;26.07;42.36;99508.25;5281278;27;34068;-84
2023/06/16 08:32:28;;;;;;;;;;;;;;;25.87;40.81;99506.94;5282402;27;32824;-84
2023/06/16 08:34:55;;;;;;;;;;;;;;;25.82;42.61;99509.31;5282925;27;34928;-84
2023/06/16 08:37:23;;;;;;;;;;;;;;;26.02;41.85;99499.81;5301454;27;34326;-84
2023/06/16 08:39:57;;;;;;;;;;;;;;;26.36;41.14;99506.78;5266398;27;33192;-84
2023/06/16 08:42:25;;;;;;;;;;;;;;;26.50;40.35;99500.66;5283274;27;32322;-85
2023/06/16 08:44:53;;;;;;;;;;;;;;;26.92;39.83;99499.38;5282489;27;33961;-84
2023/06/16 08:47:21;;;;;;;;;;;;;;;26.73;40.04;99504.28;5301396;27;34068;-84
2023/06/16 08:49:52;;;;;;;;;;;;;;;26.99;38.41;99503.09;5300676;27;34222;-84
2023/06/16 08:52:20;;;;;;;;;;;;;;;27.04;39.74;99496.09;5282296;27;33435;-84
2023/06/16 08:55:09;;;;;;;;;;;;;;;27.00;37.75;99502.06;5285447;27;33746;-84
2023/06/16 08:57:38;;;;;;;;;;;;;;;26.58;39.62;99500.59;5300637;27;35153;-84
2023/06/16 09:00:09;;;;;;;;;;;;;;;26.68;40.91;99494.97;5264189;27;34115;-84
2023/06/16 09:02:36;;;;;;;;;;;;;;;26.85;41.40;99506.56;5301451;27;33675;-85
2023/06/16 09:05:07;;;;;;;;;;;;;;;26.35;40.55;99496.97;5301544;27;34417;-84
2023/06/16 09:07:35;;;;;;;;;;;;;;;26.41;41.89;99504.41;5282831;27;34265;-84
2023/06/16 09:10:03;;;;;;;;;;;;;;;26.80;40.56;99490.84;5282908;27;34517;-84
2023/06/16 09:12:31;;;;;;;;;;;;;;;26.91;40.15;99500.41;5283159;27;32642;-84
2023/06/16 09:14:59;;;;;;;;;;;;;;;27.26;41.60;99497.16;5263588;27;33933;-84
2023/06/16 10:47:14;;;;;;;;;;;;;;;26.66;40.26;99476.19;5317395;26;34096;-85
2023/06/16 10:49:57;;;;;;;;;;;;;;;26.83;39.86;99465.28;5301102;27;32830;-85
2023/06/16 10:52:27;;;;;;;;;;;;;;;26.78;40.86;99463.94;5320661;27;34755;-85
2023/06/16 10:54:58;;;;;;;;;;;;;;;27.29;39.12;99455.28;5282987;27;33555;-85
2023/06/16 10:57:26;;;;;;;;;;;;;;;27.17;38.73;99452.16;5300634;27;33014;-85
2023/06/16 11:00:07;;;;;;;;;;;;;;;27.57;39.52;99452.81;5264825;27;33717;-85
2023/06/16 11:02:37;;;;;;;;;;;;;;;27.91;37.77;99451.47;5302292;27;35063;-85
2023/06/16 11:05:08;;;;;;;;;;;;;;;27.87;37.49;99456.44;5301656;27;34167;-85
2023/06/16 11:07:38;;;;;;;;;;;;;;;27.77;37.43;99454.00;5321264;27;33663;-85
2023/06/16 11:10:26;;;;;;;;;;;;;;;27.54;38.21;99447.78;5299282;27;33162;-84
2023/06/16 11:12:53;;;;;;;;;;;;;;;27.37;38.35;99451.66;5301673;27;33913;-85
2023/06/16 11:15:22;;;;;;;;;;;;;;;28.23;37.48;99442.91;5265069;27;32557;-86
2023/06/16 11:17:51;;;;;;;;;;;;;;;28.61;34.76;99448.22;5265505;27;32194;-85
2023/06/16 11:20:20;;;;;;;;;;;;;;;28.94;34.12;99442.28;5300783;27;34307;-85
2023/06/16 11:22:49;;;;;;;;;;;;;;;28.67;33.63;99443.88;5300871;27;34782;-82
2023/06/16 11:25:17;;;;;;;;;;;;;;;29.13;31.76;99440.81;5281329;27;33430;-83
2023/06/16 11:27:44;;;;;;;;;;;;;;;28.52;34.80;99446.63;5301446;27;32907;-83
2023/06/16 11:30:13;;;;;;;;;;;;;;;28.86;32.51;99435.09;5282640;27;35322;-83
2023/06/16 11:32:40;;;;;;;;;;;;;;;28.89;34.01;99432.00;5265293;27;33475;-83
2023/06/16 11:35:09;;;;;;;;;;;;;;;29.03;33.53;99441.16;5283412;27;34107;-83
2023/06/16 11:37:40;;;;;;;;;;;;;;;29.12;32.80;99431.81;5320551;27;32847;-83
2023/06/16 11:40:08;;;;;;;;;;;;;;;28.37;34.16;99429.53;5300680;27;33731;-83
2023/06/16 11:42:36;;;;;;;;;;;;;;;28.78;33.20;99424.38;5282560;27;34031;-83
2023/06/16 11:45:03;;;;;;;;;;;;;;;29.33;33.63;99420.91;5282634;27;34118;-83
2023/06/16 11:47:31;;;;;;;;;;;;;;;29.14;33.67;99413.44;5264722;27;32598;-83
2023/06/16 11:49:58;;;;;;;;;;;;;;;29.61;32.58;99408.38;5301584;27;33991;-83
2023/06/16 11:52:26;;;;;;;;;;;;;;;29.34;32.99;99409.00;5264774;27;33379;-83
2023/06/16 11:54:57;;;;;;;;;;;;;;;29.15;32.22;99409.69;5301183;27;34409;-82
2023/06/16 11:57:24;;;;;;;;;;;;;;;28.74;34.17;99404.88;5301493;27;33610;-82
2023/06/16 11:59:52;;;;;;;;;;;;;;;28.95;33.49;99398.63;5282807;27;34530;-84
2023/06/16 12:02:19;;;;;;;;;;;;;;;28.86;34.40;99398.94;5283488;27;34768;-83
2023/06/16 12:04:47;;;;;;;;;;;;;;;28.55;35.54;99398.22;5264435;27;32937;-83
2023/06/16 12:07:14;;;;;;;;;;;;;;;28.36;35.35;99395.28;5283069;27;31908;-83
2023/06/16 12:09:42;;;;;;;;;;;;;;;28.60;35.57;99385.94;5301118;27;33809;-83
2023/06/16 12:12:10;;;;;;;;;;;;;;;28.46;35.40;99390.38;5320840;27;34004;-83
2023/06/16 12:14:37;;;;;;;;;;;;;;;28.65;34.59;99392.47;5301334;27;34210;-83
2023/06/16 12:17:05;;;;;;;;;;;;;;;29.12;35.39;99384.78;5282058;27;32322;-83
2023/06/16 12:19:33;;;;;;;;;;;;;;;29.51;34.16;99376.06;5282670;27;33656;-83
2023/06/16 12:22:01;;;;;;;;;;;;;;;29.70;32.52;99378.09;5300966;27;34036;-83
2023/06/16 12:24:29;;;;;;;;;;;;;;;29.41;32.99;99381.00;5264231;27;32789;-83
2023/06/16 12:26:57;;;;;;;;;;;;;;;29.00;33.85;99385.28;5299988;27;32815;-83
2023/06/16 12:29:28;;;;;;;;;;;;;;;28.58;34.07;99380.69;5299949;27;34814;-85
2023/06/16 12:31:56;;;;;;;;;;;;;;;28.91;33.67;99381.00;5282851;27;34257;-85
2023/06/16 12:34:25;;;;;;;;;;;;;;;29.09;33.51;99384.13;5283092;27;34232;-84
2023/06/16 12:36:53;;;;;;;;;;;;;;;29.38;33.70;99376.78;5301075;27;33055;-84
2023/06/16 12:39:21;;;;;;;;;;;;;;;29.44;32.58;99370.59;5282210;27;32577;-85
2023/06/16 12:42:01;;;;;;;;;;;;;;;29.35;33.15;99377.22;5282711;27;33303;-86
2023/06/16 12:44:42;;;;;;;;;;;;;;;29.42;34.16;99367.22;5280958;27;33835;-85
2023/06/16 12:47:15;;;;;;;;;;;;;;;29.61;33.32;99371.13;5279042;27;33005;-85
2023/06/16 12:49:42;;;;;;;;;;;;;;;30.12;32.11;99356.28;5260498;27;32906;-84
2023/06/16 12:52:11;;;;;;;;;;;;;;;29.64;32.19;99370.72;5277191;27;33468;-85
2023/06/16 12:54:38;;;;;;;;;;;;;;;29.27;31.83;99374.63;5296540;27;34251;-85
2023/06/16 12:57:06;;;;;;;;;;;;;;;29.89;32.14;99362.91;5278458;27;32573;-85
2023/06/16 12:59:34;;;;;;;;;;;;;;;30.01;33.38;99358.56;5297767;27;33275;-85
2023/06/16 13:02:06;;;;;;;;;;;;;;;29.63;35.02;99363.63;5278418;27;34367;-85
2023/06/16 13:04:34;;;;;;;;;;;;;;;30.02;33.73;99362.13;5278470;27;33508;-85
2023/06/16 13:07:02;;;;;;;;;;;;;;;29.96;32.99;99355.63;5297415;27;32921;-84
2023/06/16 13:09:29;;;;;;;;;;;;;;;29.78;34.03;99356.16;5260027;27;34071;-84
2023/06/16 13:11:57;;;;;;;;;;;;;;;29.74;32.58;99349.44;5297044;27;34686;-85
2023/06/16 13:14:28;;;;;;;;;;;;;;;29.52;34.57;99351.38;5278838;27;35011;-84
2023/06/16 13:16:55;;;;;;;;;;;;;;;29.29;34.29;99362.53;5279185;27;32155;-85
2023/06/16 13:19:23;;;;;;;;;;;;;;;29.65;33.56;99350.63;5279808;27;33854;-84
2023/06/16 13:21:52;;;;;;;;;;;;;;;28.84;34.85;99363.81;5279602;27;33310;-84
2023/06/16 13:24:19;;;;;;;;;;;;;;;29.67;35.29;99351.25;5296987;27;34403;-84
2023/06/16 13:26:47;;;;;;;;;;;;;;;29.91;33.17;99346.34;5297491;27;33101;-85
2023/06/16 13:29:14;;;;;;;;;;;;;;;29.38;33.03;99348.75;5278763;27;33211;-84
2023/06/16 13:31:42;;;;;;;;;;;;;;;29.20;33.58;99352.84;5279454;27;33650;-85
2023/06/16 13:34:11;;;;;;;;;;;;;;;29.85;31.38;99342.56;5278929;27;35321;-84
2023/06/16 13:36:39;;;;;;;;;;;;;;;29.66;33.52;99346.88;5279471;27;33349;-84
2023/06/16 13:39:09;;;;;;;;;;;;;;;30.01;31.68;99346.84;5279804;27;34158;-83
2023/06/16 13:41:37;;;;;;;;;;;;;;;29.39;33.08;99342.28;5279614;27;33648;-84
2023/06/16 13:44:04;;;;;;;;;;;;;;;29.37;32.46;99336.22;5298033;27;33760;-84
2023/06/16 13:46:32;;;;;;;;;;;;;;;29.50;30.67;99326.25;5264540;27;32237;-84
2023/06/16 13:48:59;;;;;;;;;;;;;;;29.33;31.93;99328.44;5320370;27;34611;-84
2023/06/16 13:51:27;;;;;;;;;;;;;;;29.54;31.61;99321.25;5283063;27;34399;-84
2023/06/16 13:53:55;;;;;;;;;;;;;;;29.20;31.71;99335.66;5282754;27;33548;-85
2023/06/16 13:56:23;;;;;;;;;;;;;;;29.05;32.22;99335.78;5283769;27;33907;-83
2023/06/16 13:58:50;;;;;;;;;;;;;;;29.52;30.07;99320.59;5301340;27;34928;-85
2023/06/16 14:01:18;;;;;;;;;;;;;;;29.45;30.00;99327.91;5301557;27;34901;-85
2023/06/16 14:03:46;;;;;;;;;;;;;;;29.34;30.60;99319.28;5301569;27;34008;-85
2023/06/16 14:06:14;;;;;;;;;;;;;;;29.68;30.85;99314.87;5301350;27;33065;-85
2023/06/16 14:08:41;;;;;;;;;;;;;;;29.59;30.51;99314.19;5283111;27;33549;-85
2023/06/16 14:11:09;;;;;;;;;;;;;;;29.38;31.38;99310.69;5300758;27;34363;-85
2023/06/16 14:13:36;;;;;;;;;;;;;;;29.59;31.22;99302.47;5265568;27;32731;-84
2023/06/16 14:16:04;;;;;;;;;;;;;;;29.39;30.21;99313.22;5283071;27;33473;-84
2023/06/16 14:18:32;;;;;;;;;;;;;;;29.66;30.21;99306.06;5283035;27;34264;-84
2023/06/16 14:20:59;;;;;;;;;;;;;;;29.71;30.34;99306.28;5301689;27;34973;-84
2023/06/16 14:23:27;;;;;;;;;;;;;;;29.74;30.43;99303.19;5301175;27;34318;-84
2023/06/16 14:25:54;;;;;;;;;;;;;;;29.77;29.48;99308.22;5283433;27;32606;-84